Skip Navigation LinksHome page > Weather > Current weather Skip Navigation Links

Current Weather

Ronald Reagan Washington National, Washington

For information only: do not use for flight planning or navigation.
Latest weather
Observation time Friday, May 29, 2020 5:52 PM EDT
Local time Friday, May 29, 2020 6:57 PM EDT
Flight conditions Visual Meteorological Conditions
Winds
Wind direction South-Southwest (210°)
Wind speed 16 mph
Visibility 10 mi.
Sky condition
Ceiling 20,000 ft. overcast
Cloud layer few clouds 4,000 ft.
Cloud layer scattered clouds 14,000 ft.
Cloud layer overcast 20,000 ft.
Temperature 83°F
Dewpoint 71°F
Altimeter 29.90 in.Hg
Derived measurements
Relative humidity 68%
Heat index 88°F
Density altitude 1919 ft.
Sea-level pressure 29.90 in.Hg
Remarks
Automated weather observing station with precipitation discriminator.
METAR KDCA 292152Z 21014KT 10SM FEW040 SCT140 OVC200 28/22 A2990 RMK AO2 SLP124 T02830217

Settings

Location code

InnerDrive.Weather 4.0.6770.0 Release CLR 4.0.30319.42000
Copyright ©2018 Inner Drive Technology. All rights reserved. Portions Copyright ©1986-2018 David Braverman.

Find weather

Site navigation


Skip Navigation Links

Place info

Page info

PayPal - The safer, easier way to pay online!

Return home.

Copyright ©2020 Inner Drive Technology. Purveyors of fine, hand-crafted computer software. Page printed 2020-05-29T22:57:08 UTC.